sensor_id;sensor_type;location;lat;lon;timestamp;pressure;altitude;pressure_sealevel;temperature;humidity
80335;BME280;69653;52.674;13.574;2023-11-19T00:01:04;100744.09;;;2.75;92.50
80335;BME280;69653;52.674;13.574;2023-11-19T00:03:30;100739.25;;;2.77;93.13
80335;BME280;69653;52.674;13.574;2023-11-19T00:05:56;100728.22;;;2.78;92.68
80335;BME280;69653;52.674;13.574;2023-11-19T00:08:21;100728.88;;;2.85;92.36
80335;BME280;69653;52.674;13.574;2023-11-19T00:10:46;100703.50;;;2.86;92.03
80335;BME280;69653;52.674;13.574;2023-11-19T00:13:12;100692.34;;;2.83;92.64
80335;BME280;69653;52.674;13.574;2023-11-19T00:15:37;100698.84;;;2.82;92.88
80335;BME280;69653;52.674;13.574;2023-11-19T00:18:02;100687.72;;;2.78;93.27
80335;BME280;69653;52.674;13.574;2023-11-19T00:20:30;100692.78;;;2.75;93.72
80335;BME280;69653;52.674;13.574;2023-11-19T00:22:55;100681.41;;;2.73;93.32
80335;BME280;69653;52.674;13.574;2023-11-19T00:25:21;100672.78;;;2.76;93.69
80335;BME280;69653;52.674;13.574;2023-11-19T00:27:50;100659.28;;;2.76;94.02
80335;BME280;69653;52.674;13.574;2023-11-19T00:30:16;100650.31;;;2.70;93.94
80335;BME280;69653;52.674;13.574;2023-11-19T00:32:42;100660.44;;;2.80;93.50
80335;BME280;69653;52.674;13.574;2023-11-19T00:35:07;100648.66;;;2.69;93.91
80335;BME280;69653;52.674;13.574;2023-11-19T00:37:33;100659.63;;;2.79;93.50
80335;BME280;69653;52.674;13.574;2023-11-19T00:39:59;100655.84;;;2.80;93.19
80335;BME280;69653;52.674;13.574;2023-11-19T00:42:24;100646.06;;;2.74;93.26
80335;BME280;69653;52.674;13.574;2023-11-19T00:44:52;100626.56;;;2.72;93.70
80335;BME280;69653;52.674;13.574;2023-11-19T00:47:18;100632.56;;;2.74;93.41
80335;BME280;69653;52.674;13.574;2023-11-19T00:49:47;100630.59;;;2.70;93.76
80335;BME280;69653;52.674;13.574;2023-11-19T00:52:16;100628.31;;;2.78;93.68
80335;BME280;69653;52.674;13.574;2023-11-19T00:54:42;100613.38;;;2.76;93.16
80335;BME280;69653;52.674;13.574;2023-11-19T00:57:07;100617.72;;;2.77;93.29
80335;BME280;69653;52.674;13.574;2023-11-19T00:59:32;100595.00;;;2.73;92.96
80335;BME280;69653;52.674;13.574;2023-11-19T01:01:58;100600.47;;;2.78;92.92
80335;BME280;69653;52.674;13.574;2023-11-19T01:04:28;100588.78;;;2.72;93.09
80335;BME280;69653;52.674;13.574;2023-11-19T01:06:53;100581.25;;;2.74;93.14
80335;BME280;69653;52.674;13.574;2023-11-19T01:09:19;100569.94;;;2.77;92.29
80335;BME280;69653;52.674;13.574;2023-11-19T01:11:45;100567.81;;;2.79;92.48
80335;BME280;69653;52.674;13.574;2023-11-19T01:14:10;100562.84;;;2.71;93.18
80335;BME280;69653;52.674;13.574;2023-11-19T01:16:35;100547.22;;;2.73;93.01
80335;BME280;69653;52.674;13.574;2023-11-19T01:19:01;100538.88;;;2.75;92.32
80335;BME280;69653;52.674;13.574;2023-11-19T01:21:30;100531.66;;;2.80;91.88
80335;BME280;69653;52.674;13.574;2023-11-19T01:23:56;100523.81;;;2.79;92.32
80335;BME280;69653;52.674;13.574;2023-11-19T01:26:22;100508.41;;;2.79;92.62
80335;BME280;69653;52.674;13.574;2023-11-19T01:28:47;100497.38;;;2.81;92.19
80335;BME280;69653;52.674;13.574;2023-11-19T01:31:16;100504.94;;;2.84;92.11
80335;BME280;69653;52.674;13.574;2023-11-19T01:33:42;100499.75;;;2.77;92.23
80335;BME280;69653;52.674;13.574;2023-11-19T01:36:08;100496.00;;;2.78;92.23
80335;BME280;69653;52.674;13.574;2023-11-19T01:38:34;100494.34;;;2.77;92.65
80335;BME280;69653;52.674;13.574;2023-11-19T01:41:00;100498.41;;;2.80;92.51
80335;BME280;69653;52.674;13.574;2023-11-19T01:43:46;100492.78;;;2.81;92.06
80335;BME280;69653;52.674;13.574;2023-11-19T01:46:12;100470.59;;;2.79;92.11
80335;BME280;69653;52.674;13.574;2023-11-19T01:48:41;100461.19;;;2.82;91.63
80335;BME280;69653;52.674;13.574;2023-11-19T01:51:08;100458.81;;;2.85;91.53
80335;BME280;69653;52.674;13.574;2023-11-19T01:53:35;100456.66;;;2.87;91.01
80335;BME280;69653;52.674;13.574;2023-11-19T01:56:02;100424.47;;;2.81;90.86
80335;BME280;69653;52.674;13.574;2023-11-19T01:58:28;100427.97;;;2.81;91.22
80335;BME280;69653;52.674;13.574;2023-11-19T02:00:56;100424.75;;;2.84;91.80
80335;BME280;69653;52.674;13.574;2023-11-19T02:03:22;100424.25;;;2.87;91.26
80335;BME280;69653;52.674;13.574;2023-11-19T02:05:48;100418.31;;;2.85;91.20
80335;BME280;69653;52.674;13.574;2023-11-19T02:08:14;100427.47;;;2.84;91.08
80335;BME280;69653;52.674;13.574;2023-11-19T02:10:40;100405.34;;;2.87;91.25
80335;BME280;69653;52.674;13.574;2023-11-19T02:13:05;100388.63;;;2.90;90.60
80335;BME280;69653;52.674;13.574;2023-11-19T02:15:32;100383.59;;;2.99;89.69
80335;BME280;69653;52.674;13.574;2023-11-19T02:17:57;100367.16;;;3.01;89.80
80335;BME280;69653;52.674;13.574;2023-11-19T02:20:42;100350.66;;;3.02;89.48
80335;BME280;69653;52.674;13.574;2023-11-19T02:23:07;100346.84;;;2.98;90.08
80335;BME280;69653;52.674;13.574;2023-11-19T02:25:33;100353.81;;;2.94;91.23
80335;BME280;69653;52.674;13.574;2023-11-19T02:28:01;100342.25;;;2.99;90.98
80335;BME280;69653;52.674;13.574;2023-11-19T02:30:27;100340.38;;;2.99;91.09
80335;BME280;69653;52.674;13.574;2023-11-19T02:32:54;100339.53;;;2.93;91.44
80335;BME280;69653;52.674;13.574;2023-11-19T02:35:22;100328.97;;;2.92;91.65
80335;BME280;69653;52.674;13.574;2023-11-19T02:37:48;100319.81;;;2.93;91.79
80335;BME280;69653;52.674;13.574;2023-11-19T02:40:13;100316.84;;;2.94;91.78
80335;BME280;69653;52.674;13.574;2023-11-19T02:42:39;100299.22;;;2.87;91.84
80335;BME280;69653;52.674;13.574;2023-11-19T02:45:04;100288.97;;;2.89;92.04
80335;BME280;69653;52.674;13.574;2023-11-19T02:47:31;100265.75;;;2.88;91.37
80335;BME280;69653;52.674;13.574;2023-11-19T02:49:57;100271.16;;;2.88;91.79
80335;BME280;69653;52.674;13.574;2023-11-19T02:52:22;100295.75;;;2.91;91.58
80335;BME280;69653;52.674;13.574;2023-11-19T02:54:48;100267.38;;;2.89;91.34
80335;BME280;69653;52.674;13.574;2023-11-19T02:57:13;100269.03;;;2.95;90.91
80335;BME280;69653;52.674;13.574;2023-11-19T02:59:39;100270.09;;;2.94;91.02
80335;BME280;69653;52.674;13.574;2023-11-19T03:02:07;100274.19;;;2.97;90.51
80335;BME280;69653;52.674;13.574;2023-11-19T03:04:36;100264.75;;;2.99;90.61
80335;BME280;69653;52.674;13.574;2023-11-19T03:07:04;100250.44;;;2.99;90.41
80335;BME280;69653;52.674;13.574;2023-11-19T03:09:30;100236.41;;;3.02;90.45
80335;BME280;69653;52.674;13.574;2023-11-19T03:11:55;100227.25;;;3.03;90.81
80335;BME280;69653;52.674;13.574;2023-11-19T03:14:20;100232.03;;;2.96;91.30
80335;BME280;69653;52.674;13.574;2023-11-19T03:16:48;100226.09;;;2.93;91.29
80335;BME280;69653;52.674;13.574;2023-11-19T03:19:13;100229.09;;;2.97;90.37
80335;BME280;69653;52.674;13.574;2023-11-19T03:21:38;100234.22;;;2.99;91.43
80335;BME280;69653;52.674;13.574;2023-11-19T03:24:04;100234.22;;;2.93;90.95
80335;BME280;69653;52.674;13.574;2023-11-19T03:26:29;100238.31;;;3.01;90.83
80335;BME280;69653;52.674;13.574;2023-11-19T03:28:55;100232.09;;;3.01;90.93
80335;BME280;69653;52.674;13.574;2023-11-19T03:31:22;100227.25;;;3.03;91.22
80335;BME280;69653;52.674;13.574;2023-11-19T03:33:48;100237.03;;;3.09;91.16
80335;BME280;69653;52.674;13.574;2023-11-19T03:36:13;100219.72;;;3.05;91.50
80335;BME280;69653;52.674;13.574;2023-11-19T03:38:38;100216.47;;;3.08;91.68
80335;BME280;69653;52.674;13.574;2023-11-19T03:41:11;100186.47;;;3.04;92.72
80335;BME280;69653;52.674;13.574;2023-11-19T03:43:36;100176.50;;;3.05;92.91
80335;BME280;69653;52.674;13.574;2023-11-19T03:46:02;100172.97;;;3.04;92.96
80335;BME280;69653;52.674;13.574;2023-11-19T03:48:27;100167.81;;;3.03;93.77
80335;BME280;69653;52.674;13.574;2023-11-19T03:50:52;100160.00;;;3.01;93.96
80335;BME280;69653;52.674;13.574;2023-11-19T03:53:18;100132.66;;;2.92;94.59
80335;BME280;69653;52.674;13.574;2023-11-19T03:55:44;100138.88;;;2.98;95.14
80335;BME280;69653;52.674;13.574;2023-11-19T03:58:09;100132.38;;;2.94;95.42
80335;BME280;69653;52.674;13.574;2023-11-19T04:00:34;100131.53;;;2.88;95.86
80335;BME280;69653;52.674;13.574;2023-11-19T04:03:00;100126.19;;;2.93;96.12
80335;BME280;69653;52.674;13.574;2023-11-19T04:05:25;100113.75;;;2.92;96.54
80335;BME280;69653;52.674;13.574;2023-11-19T04:07:51;100112.69;;;2.93;96.21
80335;BME280;69653;52.674;13.574;2023-11-19T04:10:16;100116.97;;;2.94;95.69
80335;BME280;69653;52.674;13.574;2023-11-19T04:12:42;100098.06;;;2.89;96.53
80335;BME280;69653;52.674;13.574;2023-11-19T04:15:08;100090.22;;;2.88;97.00
80335;BME280;69653;52.674;13.574;2023-11-19T04:17:34;100079.47;;;2.93;96.79
80335;BME280;69653;52.674;13.574;2023-11-19T04:19:59;100068.91;;;2.91;97.76
80335;BME280;69653;52.674;13.574;2023-11-19T04:22:24;100054.34;;;2.92;97.88
80335;BME280;69653;52.674;13.574;2023-11-19T04:24:50;100043.28;;;2.99;96.53
80335;BME280;69653;52.674;13.574;2023-11-19T04:27:15;100045.75;;;3.01;97.26
80335;BME280;69653;52.674;13.574;2023-11-19T04:29:40;100033.84;;;3.02;97.48
80335;BME280;69653;52.674;13.574;2023-11-19T04:32:06;100037.34;;;3.02;97.11
80335;BME280;69653;52.674;13.574;2023-11-19T04:34:32;100056.00;;;3.04;97.74
80335;BME280;69653;52.674;13.574;2023-11-19T04:36:57;100054.38;;;3.03;97.49
80335;BME280;69653;52.674;13.574;2023-11-19T04:39:26;100050.59;;;3.04;97.65
80335;BME280;69653;52.674;13.574;2023-11-19T04:41:52;100050.88;;;3.07;98.06
80335;BME280;69653;52.674;13.574;2023-11-19T04:44:18;100054.38;;;3.03;97.79
80335;BME280;69653;52.674;13.574;2023-11-19T04:46:44;100037.34;;;3.02;97.78
80335;BME280;69653;52.674;13.574;2023-11-19T04:49:10;100030.38;;;3.11;97.47
80335;BME280;69653;52.674;13.574;2023-11-19T04:51:43;100031.72;;;3.09;98.36
80335;BME280;69653;52.674;13.574;2023-11-19T04:54:09;100024.13;;;3.06;98.07
80335;BME280;69653;52.674;13.574;2023-11-19T04:56:36;100020.94;;;3.09;98.39
80335;BME280;69653;52.674;13.574;2023-11-19T04:59:03;100018.72;;;3.06;98.26
80335;BME280;69653;52.674;13.574;2023-11-19T05:01:28;99999.56;;;3.07;98.78
80335;BME280;69653;52.674;13.574;2023-11-19T05:03:53;99987.41;;;3.05;99.38
80335;BME280;69653;52.674;13.574;2023-11-19T05:06:19;99969.28;;;3.00;99.88
80335;BME280;69653;52.674;13.574;2023-11-19T05:08:44;99952.28;;;3.00;99.75
80335;BME280;69653;52.674;13.574;2023-11-19T05:11:10;99944.44;;;2.93;100.00
80335;BME280;69653;52.674;13.574;2023-11-19T05:13:37;99949.03;;;2.98;100.00
80335;BME280;69653;52.674;13.574;2023-11-19T05:16:03;99953.88;;;2.96;100.00
80335;BME280;69653;52.674;13.574;2023-11-19T05:18:29;99951.19;;;2.96;100.00
80335;BME280;69653;52.674;13.574;2023-11-19T05:20:55;99936.59;;;2.97;100.00
80335;BME280;69653;52.674;13.574;2023-11-19T05:23:20;99934.44;;;2.99;100.00
80335;BME280;69653;52.674;13.574;2023-11-19T05:25:46;99932.53;;;2.94;100.00
80335;BME280;69653;52.674;13.574;2023-11-19T05:28:12;99901.75;;;2.95;100.00
80335;BME280;69653;52.674;13.574;2023-11-19T05:30:39;99913.41;;;3.01;100.00
80335;BME280;69653;52.674;13.574;2023-11-19T05:33:05;99887.19;;;2.96;100.00
80335;BME280;69653;52.674;13.574;2023-11-19T05:35:31;99902.56;;;2.96;100.00
80335;BME280;69653;52.674;13.574;2023-11-19T05:37:57;99893.38;;;2.91;100.00
80335;BME280;69653;52.674;13.574;2023-11-19T05:40:22;99912.03;;;2.98;100.00
80335;BME280;69653;52.674;13.574;2023-11-19T05:42:48;99901.78;;;3.00;100.00
80335;BME280;69653;52.674;13.574;2023-11-19T05:45:13;99910.16;;;3.04;100.00
80335;BME280;69653;52.674;13.574;2023-11-19T05:47:38;99895.59;;;3.05;100.00
80335;BME280;69653;52.674;13.574;2023-11-19T05:50:04;99896.09;;;3.02;100.00
80335;BME280;69653;52.674;13.574;2023-11-19T05:52:31;99879.38;;;3.05;100.00
80335;BME280;69653;52.674;13.574;2023-11-19T05:55:00;99869.91;;;3.02;100.00
80335;BME280;69653;52.674;13.574;2023-11-19T05:57:28;99897.19;;;3.06;100.00
80335;BME280;69653;52.674;13.574;2023-11-19T05:59:54;99889.38;;;3.04;100.00
80335;BME280;69653;52.674;13.574;2023-11-19T06:02:19;99881.50;;;3.03;100.00
80335;BME280;69653;52.674;13.574;2023-11-19T06:04:45;99883.16;;;3.04;100.00
80335;BME280;69653;52.674;13.574;2023-11-19T06:07:13;99876.94;;;3.08;100.00
80335;BME280;69653;52.674;13.574;2023-11-19T06:09:38;99872.88;;;3.06;100.00
80335;BME280;69653;52.674;13.574;2023-11-19T06:12:04;99869.66;;;3.09;100.00
80335;BME280;69653;52.674;13.574;2023-11-19T06:14:31;99862.34;;;3.04;100.00
80335;BME280;69653;52.674;13.574;2023-11-19T06:16:56;99882.63;;;3.12;100.00
80335;BME280;69653;52.674;13.574;2023-11-19T06:19:22;99873.72;;;3.11;100.00
80335;BME280;69653;52.674;13.574;2023-11-19T06:21:49;99862.63;;;3.18;100.00
80335;BME280;69653;52.674;13.574;2023-11-19T06:24:15;99857.22;;;3.18;100.00
80335;BME280;69653;52.674;13.574;2023-11-19T06:26:40;99865.34;;;3.18;100.00
80335;BME280;69653;52.674;13.574;2023-11-19T06:29:05;99858.31;;;3.22;100.00
80335;BME280;69653;52.674;13.574;2023-11-19T06:31:31;99846.41;;;3.18;100.00
80335;BME280;69653;52.674;13.574;2023-11-19T06:33:56;99838.84;;;3.25;100.00
80335;BME280;69653;52.674;13.574;2023-11-19T06:36:21;99820.75;;;3.25;100.00
80335;BME280;69653;52.674;13.574;2023-11-19T06:38:47;99809.94;;;3.25;100.00
80335;BME280;69653;52.674;13.574;2023-11-19T06:41:12;99821.03;;;3.29;100.00
80335;BME280;69653;52.674;13.574;2023-11-19T06:43:37;99815.34;;;3.25;100.00
80335;BME280;69653;52.674;13.574;2023-11-19T06:46:03;99812.91;;;3.29;100.00
80335;BME280;69653;52.674;13.574;2023-11-19T06:48:33;99807.53;;;3.29;100.00
80335;BME280;69653;52.674;13.574;2023-11-19T06:51:00;99802.13;;;3.34;100.00
80335;BME280;69653;52.674;13.574;2023-11-19T06:53:25;99810.22;;;3.34;100.00
80335;BME280;69653;52.674;13.574;2023-11-19T06:55:53;99813.47;;;3.36;100.00
80335;BME280;69653;52.674;13.574;2023-11-19T06:58:18;99799.13;;;3.40;100.00
80335;BME280;69653;52.674;13.574;2023-11-19T07:00:44;99794.28;;;3.37;100.00
80335;BME280;69653;52.674;13.574;2023-11-19T07:03:11;99792.66;;;3.41;100.00
80335;BME280;69653;52.674;13.574;2023-11-19T07:05:36;99781.84;;;3.41;100.00
80335;BME280;69653;52.674;13.574;2023-11-19T07:08:04;99788.31;;;3.40;100.00
80335;BME280;69653;52.674;13.574;2023-11-19T07:10:32;99792.09;;;3.45;100.00
80335;BME280;69653;52.674;13.574;2023-11-19T07:12:57;99800.75;;;3.47;100.00
80335;BME280;69653;52.674;13.574;2023-11-19T07:15:22;99796.44;;;3.46;100.00
80335;BME280;69653;52.674;13.574;2023-11-19T07:17:48;99804.00;;;3.43;100.00
80335;BME280;69653;52.674;13.574;2023-11-19T07:20:13;99810.22;;;3.49;100.00
80335;BME280;69653;52.674;13.574;2023-11-19T07:22:43;99809.66;;;3.52;100.00
80335;BME280;69653;52.674;13.574;2023-11-19T07:25:08;99805.06;;;3.48;100.00
80335;BME280;69653;52.674;13.574;2023-11-19T07:27:33;99791.81;;;3.51;100.00
80335;BME280;69653;52.674;13.574;2023-11-19T07:29:59;99799.38;;;3.54;100.00
80335;BME280;69653;52.674;13.574;2023-11-19T07:32:24;99792.91;;;3.55;100.00
80335;BME280;69653;52.674;13.574;2023-11-19T07:34:49;99797.78;;;3.53;100.00
80335;BME280;69653;52.674;13.574;2023-11-19T07:37:15;99786.41;;;3.56;100.00
80335;BME280;69653;52.674;13.574;2023-11-19T07:39:42;99777.75;;;3.59;100.00
80335;BME280;69653;52.674;13.574;2023-11-19T07:42:07;99787.47;;;3.65;100.00
80335;BME280;69653;52.674;13.574;2023-11-19T07:44:34;99787.47;;;3.65;100.00
80335;BME280;69653;52.674;13.574;2023-11-19T07:46:59;99793.69;;;3.66;100.00
80335;BME280;69653;52.674;13.574;2023-11-19T07:49:25;99788.84;;;3.68;100.00
80335;BME280;69653;52.674;13.574;2023-11-19T07:51:50;99791.28;;;3.64;100.00
80335;BME280;69653;52.674;13.574;2023-11-19T07:54:15;99794.25;;;3.68;100.00
80335;BME280;69653;52.674;13.574;2023-11-19T07:56:41;99785.84;;;3.69;100.00
80335;BME280;69653;52.674;13.574;2023-11-19T07:59:06;99787.47;;;3.75;100.00
80335;BME280;69653;52.674;13.574;2023-11-19T08:01:32;99777.72;;;3.74;100.00
80335;BME280;69653;52.674;13.574;2023-11-19T08:03:57;99783.94;;;3.75;100.00
80335;BME280;69653;52.674;13.574;2023-11-19T08:06:22;99780.41;;;3.79;100.00
80335;BME280;69653;52.674;13.574;2023-11-19T08:08:48;99779.59;;;3.79;100.00
80335;BME280;69653;52.674;13.574;2023-11-19T08:11:14;99781.47;;;3.83;100.00
80335;BME280;69653;52.674;13.574;2023-11-19T08:13:40;99787.94;;;3.87;100.00
80335;BME280;69653;52.674;13.574;2023-11-19T08:16:06;99780.91;;;3.91;100.00
80335;BME280;69653;52.674;13.574;2023-11-19T08:18:31;99777.38;;;3.91;100.00
80335;BME280;69653;52.674;13.574;2023-11-19T08:20:56;99771.41;;;3.99;100.00
80335;BME280;69653;52.674;13.574;2023-11-19T08:23:24;99776.25;;;4.02;100.00
80335;BME280;69653;52.674;13.574;2023-11-19T08:25:51;99777.06;;;4.08;100.00
80335;BME280;69653;52.674;13.574;2023-11-19T08:28:16;99769.19;;;4.11;100.00
80335;BME280;69653;52.674;13.574;2023-11-19T08:30:41;99765.69;;;4.06;100.00
80335;BME280;69653;52.674;13.574;2023-11-19T08:33:09;99765.66;;;4.16;100.00
80335;BME280;69653;52.674;13.574;2023-11-19T08:35:34;99760.81;;;4.13;100.00
80335;BME280;69653;52.674;13.574;2023-11-19T08:38:00;99758.06;;;4.18;100.00
80335;BME280;69653;52.674;13.574;2023-11-19T08:40:25;99763.47;;;4.23;100.00
80335;BME280;69653;52.674;13.574;2023-11-19T08:42:55;99758.88;;;4.23;100.00
80335;BME280;69653;52.674;13.574;2023-11-19T08:45:21;99737.75;;;4.25;100.00
80335;BME280;69653;52.674;13.574;2023-11-19T08:47:46;99730.41;;;4.31;100.00
80335;BME280;69653;52.674;13.574;2023-11-19T08:50:12;99727.72;;;4.31;100.00
80335;BME280;69653;52.674;13.574;2023-11-19T08:52:37;99727.97;;;4.34;100.00
80335;BME280;69653;52.674;13.574;2023-11-19T08:55:03;99753.66;;;4.37;100.00
80335;BME280;69653;52.674;13.574;2023-11-19T08:57:30;99738.72;;;4.39;100.00
80335;BME280;69653;52.674;13.574;2023-11-19T08:59:56;99723.31;;;4.40;100.00
80335;BME280;69653;52.674;13.574;2023-11-19T09:02:21;99729.75;;;4.49;100.00
80335;BME280;69653;52.674;13.574;2023-11-19T09:04:46;99736.81;;;4.50;100.00
80335;BME280;69653;52.674;13.574;2023-11-19T09:07:12;99735.66;;;4.61;100.00
80335;BME280;69653;52.674;13.574;2023-11-19T09:09:37;99736.41;;;4.67;100.00
80335;BME280;69653;52.674;13.574;2023-11-19T09:12:03;99734.50;;;4.67;100.00
80335;BME280;69653;52.674;13.574;2023-11-19T09:14:29;99746.63;;;4.80;100.00
80335;BME280;69653;52.674;13.574;2023-11-19T09:16:56;99752.81;;;4.80;100.00
80335;BME280;69653;52.674;13.574;2023-11-19T09:19:21;99781.50;;;4.86;100.00
80335;BME280;69653;52.674;13.574;2023-11-19T09:21:46;99763.59;;;4.91;100.00
80335;BME280;69653;52.674;13.574;2023-11-19T09:24:14;99759.22;;;4.95;100.00
80335;BME280;69653;52.674;13.574;2023-11-19T09:26:39;99767.88;;;4.97;100.00
80335;BME280;69653;52.674;13.574;2023-11-19T09:29:07;99758.06;;;5.06;100.00
80335;BME280;69653;52.674;13.574;2023-11-19T09:31:32;99742.88;;;5.05;100.00
80335;BME280;69653;52.674;13.574;2023-11-19T09:33:58;99738.75;;;5.12;100.00
80335;BME280;69653;52.674;13.574;2023-11-19T09:36:23;99726.25;;;5.16;100.00
80335;BME280;69653;52.674;13.574;2023-11-19T09:38:48;99692.00;;;5.25;100.00
80335;BME280;69653;52.674;13.574;2023-11-19T09:41:14;99697.34;;;5.35;100.00
80335;BME280;69653;52.674;13.574;2023-11-19T09:43:41;99706.75;;;5.43;100.00
80335;BME280;69653;52.674;13.574;2023-11-19T09:46:09;99718.78;;;5.56;100.00
80335;BME280;69653;52.674;13.574;2023-11-19T09:48:37;99724.28;;;5.74;100.00
80335;BME280;69653;52.674;13.574;2023-11-19T09:51:04;99717.94;;;5.84;100.00
80335;BME280;69653;52.674;13.574;2023-11-19T09:53:31;99709.13;;;5.97;100.00
80335;BME280;69653;52.674;13.574;2023-11-19T09:56:03;99705.44;;;6.07;100.00
80335;BME280;69653;52.674;13.574;2023-11-19T09:58:34;99712.88;;;6.20;100.00
80335;BME280;69653;52.674;13.574;2023-11-19T10:01:00;99695.78;;;6.38;100.00
80335;BME280;69653;52.674;13.574;2023-11-19T10:03:32;99701.38;;;6.47;100.00
80335;BME280;69653;52.674;13.574;2023-11-19T10:05:58;99692.56;;;6.55;100.00
80335;BME280;69653;52.674;13.574;2023-11-19T10:08:25;99694.34;;;6.78;100.00
80335;BME280;69653;52.674;13.574;2023-11-19T10:10:51;99696.13;;;6.88;100.00
80335;BME280;69653;52.674;13.574;2023-11-19T10:13:17;99710.28;;;7.03;100.00
80335;BME280;69653;52.674;13.574;2023-11-19T10:15:43;99691.13;;;7.08;100.00
80335;BME280;69653;52.674;13.574;2023-11-19T10:18:09;99696.63;;;7.22;100.00
80335;BME280;69653;52.674;13.574;2023-11-19T10:20:40;99691.69;;;7.24;100.00
80335;BME280;69653;52.674;13.574;2023-11-19T10:23:06;99691.00;;;7.32;100.00
80335;BME280;69653;52.674;13.574;2023-11-19T10:25:32;99685.97;;;7.39;100.00
80335;BME280;69653;52.674;13.574;2023-11-19T10:27:58;99682.34;;;7.44;100.00
80335;BME280;69653;52.674;13.574;2023-11-19T10:30:28;99684.66;;;7.50;100.00
80335;BME280;69653;52.674;13.574;2023-11-19T10:33:10;99678.72;;;7.62;100.00
80335;BME280;69653;52.674;13.574;2023-11-19T10:35:50;99680.53;;;7.66;100.00
80335;BME280;69653;52.674;13.574;2023-11-19T10:38:18;99671.16;;;7.72;100.00
80335;BME280;69653;52.674;13.574;2023-11-19T10:40:43;99661.06;;;7.87;100.00
80335;BME280;69653;52.674;13.574;2023-11-19T10:43:09;99664.94;;;8.21;100.00
80335;BME280;69653;52.674;13.574;2023-11-19T10:45:36;99669.03;;;8.46;100.00
80335;BME280;69653;52.674;13.574;2023-11-19T10:48:06;99660.00;;;8.59;100.00
80335;BME280;69653;52.674;13.574;2023-11-19T10:50:39;99673.16;;;9.10;100.00
80335;BME280;69653;52.674;13.574;2023-11-19T10:53:06;99665.16;;;9.14;100.00
80335;BME280;69653;52.674;13.574;2023-11-19T10:55:33;99670.00;;;9.17;100.00
80335;BME280;69653;52.674;13.574;2023-11-19T10:58:05;99667.34;;;9.73;100.00
80335;BME280;69653;52.674;13.574;2023-11-19T11:00:53;99669.31;;;9.82;99.84
80335;BME280;69653;52.674;13.574;2023-11-19T11:03:24;99674.13;;;9.85;98.93
80335;BME280;69653;52.674;13.574;2023-11-19T11:05:52;99668.16;;;9.74;99.42
80335;BME280;69653;52.674;13.574;2023-11-19T11:08:19;99669.72;;;9.66;99.42
80335;BME280;69653;52.674;13.574;2023-11-19T11:10:46;99681.59;;;9.62;99.98
80335;BME280;69653;52.674;13.574;2023-11-19T11:13:13;99663.59;;;9.52;99.32
80335;BME280;69653;52.674;13.574;2023-11-19T11:15:39;99664.41;;;9.61;99.66
80335;BME280;69653;52.674;13.574;2023-11-19T11:18:08;99662.03;;;9.68;99.97
80335;BME280;69653;52.674;13.574;2023-11-19T11:20:34;99657.69;;;9.67;99.67
80335;BME280;69653;52.674;13.574;2023-11-19T11:28:49;99656.66;;;10.03;99.15
80335;BME280;69653;52.674;13.574;2023-11-19T11:39:33;99643.53;;;10.48;97.80
80335;BME280;69653;52.674;13.574;2023-11-19T11:50:09;99642.72;;;10.90;95.50
80335;BME280;69653;52.674;13.574;2023-11-19T11:55:51;99639.81;;;10.69;94.42
80335;BME280;69653;52.674;13.574;2023-11-19T11:58:18;99640.63;;;10.61;94.96
80335;BME280;69653;52.674;13.574;2023-11-19T12:00:43;99640.97;;;10.51;95.32
80335;BME280;69653;52.674;13.574;2023-11-19T12:03:11;99624.56;;;10.43;95.05
80335;BME280;69653;52.674;13.574;2023-11-19T12:05:48;99620.88;;;10.39;94.97
80335;BME280;69653;52.674;13.574;2023-11-19T12:08:18;99625.38;;;10.43;95.38
80335;BME280;69653;52.674;13.574;2023-11-19T12:10:51;99636.47;;;10.38;95.06
80335;BME280;69653;52.674;13.574;2023-11-19T12:13:18;99631.97;;;10.34;95.03
80335;BME280;69653;52.674;13.574;2023-11-19T12:18:31;99641.13;;;10.38;95.37
80335;BME280;69653;52.674;13.574;2023-11-19T12:20:58;99639.69;;;10.40;95.18
80335;BME280;69653;52.674;13.574;2023-11-19T12:23:26;99637.09;;;10.35;94.84
80335;BME280;69653;52.674;13.574;2023-11-19T12:25:52;99639.53;;;10.37;95.48
80335;BME280;69653;52.674;13.574;2023-11-19T12:28:17;99637.91;;;10.36;95.34
80335;BME280;69653;52.674;13.574;2023-11-19T12:30:44;99646.44;;;10.34;95.93
80335;BME280;69653;52.674;13.574;2023-11-19T12:33:11;99653.50;;;10.35;95.49
80335;BME280;69653;52.674;13.574;2023-11-19T12:35:44;99648.38;;;10.34;95.73
80335;BME280;69653;52.674;13.574;2023-11-19T12:38:25;99642.25;;;10.28;95.45
80335;BME280;69653;52.674;13.574;2023-11-19T12:43:29;99649.47;;;10.15;96.61
80335;BME280;69653;52.674;13.574;2023-11-19T12:45:54;99660.06;;;10.17;96.04
80335;BME280;69653;52.674;13.574;2023-11-19T12:48:20;99652.22;;;10.15;96.32
80335;BME280;69653;52.674;13.574;2023-11-19T12:53:25;99645.16;;;10.23;96.47
80335;BME280;69653;52.674;13.574;2023-11-19T12:55:51;99642.56;;;10.44;95.80
80335;BME280;69653;52.674;13.574;2023-11-19T12:58:37;99644.63;;;10.73;94.06
80335;BME280;69653;52.674;13.574;2023-11-19T13:01:05;99639.81;;;10.87;92.76
80335;BME280;69653;52.674;13.574;2023-11-19T13:03:32;99629.13;;;11.11;91.89
80335;BME280;69653;52.674;13.574;2023-11-19T13:06:02;99628.59;;;11.26;89.99
80335;BME280;69653;52.674;13.574;2023-11-19T13:08:36;99634.03;;;11.35;88.70
80335;BME280;69653;52.674;13.574;2023-11-19T13:11:05;99632.19;;;11.47;88.52
80335;BME280;69653;52.674;13.574;2023-11-19T13:13:31;99618.50;;;11.47;87.27
80335;BME280;69653;52.674;13.574;2023-11-19T13:16:04;99638.31;;;11.53;88.02
80335;BME280;69653;52.674;13.574;2023-11-19T13:18:31;99629.41;;;11.64;86.92
80335;BME280;69653;52.674;13.574;2023-11-19T13:20:56;99629.56;;;11.59;87.01